Time;durP1;ratioP1;P1;durP2;ratioP2;P2;SDS_P1;SDS_P2;PMS_P1;PMS_P2;Temp;Humidity;BMP_temperature;BMP_pressure;BME280_temperature;BME280_humidity;BME280_pressure;Samples;Min_cycle;Max_cycle;Signal;HPM_P1;HPM_P2
2023/03/27 00:02:24;;;;;;;;;;;;;;;25.88;40.67;93329.28;4997041;28;9151;-55
2023/03/27 00:04:54;;;;;;;;;;;;;;;25.90;41.07;93331.50;5028531;28;9141;-56
2023/03/27 00:07:20;;;;;;;;;;;;;;;25.89;41.53;93325.25;5000189;28;9582;-56
2023/03/27 00:09:46;;;;;;;;;;;;;;;25.88;40.57;93332.03;5007819;28;7295;-56
2023/03/27 00:12:12;;;;;;;;;;;;;;;25.89;41.00;93330.78;5002097;28;7264;-56
2023/03/27 00:14:43;;;;;;;;;;;;;;;25.91;41.21;93322.69;5010021;28;9199;-56
2023/03/27 00:17:21;;;;;;;;;;;;;;;25.93;41.11;93328.41;4999265;28;8705;-55
2023/03/27 00:20:07;;;;;;;;;;;;;;;25.92;40.47;93324.19;5008878;28;9620;-56
2023/03/27 00:22:35;;;;;;;;;;;;;;;25.90;40.39;93315.69;4993109;28;8293;-56
2023/03/27 00:25:11;;;;;;;;;;;;;;;25.90;40.76;93326.72;5009492;28;7097;-56
2023/03/27 00:27:50;;;;;;;;;;;;;;;25.90;40.84;93331.50;5006543;28;7082;-55
2023/03/27 00:30:17;;;;;;;;;;;;;;;25.90;41.43;93335.00;4996574;28;7667;-55
2023/03/27 00:32:57;;;;;;;;;;;;;;;25.90;40.56;93326.72;5007113;28;7250;-55
2023/03/27 00:35:29;;;;;;;;;;;;;;;25.88;41.08;93329.28;4995018;28;7469;-55
2023/03/27 00:38:25;;;;;;;;;;;;;;;25.91;41.01;93330.22;4994002;28;7235;-55
2023/03/27 00:40:54;;;;;;;;;;;;;;;25.88;41.54;93323.06;4997121;28;7018;-56
2023/03/27 00:43:49;;;;;;;;;;;;;;;25.84;40.84;93312.34;5008334;28;7252;-55
2023/03/27 00:46:43;;;;;;;;;;;;;;;25.89;41.37;93324.50;4957711;28;7084;-56
2023/03/27 00:49:25;;;;;;;;;;;;;;;25.88;41.41;93323.78;4948390;28;7041;-55
2023/03/27 00:52:12;;;;;;;;;;;;;;;25.88;41.01;93323.06;4965805;28;7467;-55
2023/03/27 00:54:47;;;;;;;;;;;;;;;25.89;41.16;93321.75;4987346;28;9366;-55
2023/03/27 00:57:18;;;;;;;;;;;;;;;25.86;41.41;93320.09;4954797;28;8981;-55
2023/03/27 01:00:20;;;;;;;;;;;;;;;25.87;41.47;93325.06;4967367;28;8737;-56
2023/03/27 01:02:55;;;;;;;;;;;;;;;25.86;41.19;93328.34;4899198;29;7831;-56
2023/03/27 01:05:35;;;;;;;;;;;;;;;25.88;41.09;93328.56;4898246;29;7223;-55
2023/03/27 01:08:16;;;;;;;;;;;;;;;25.87;40.46;93333.31;4898183;29;7545;-55
2023/03/27 01:11:20;;;;;;;;;;;;;;;25.88;41.50;93343.06;4911326;29;8938;-55
2023/03/27 01:14:01;;;;;;;;;;;;;;;25.84;41.29;93350.91;4918561;29;9030;-56
2023/03/27 01:16:32;;;;;;;;;;;;;;;25.88;40.88;93361.63;4930798;29;7059;-56
2023/03/27 01:19:37;;;;;;;;;;;;;;;25.86;41.47;93356.63;4926220;29;7239;-55
2023/03/27 01:22:14;;;;;;;;;;;;;;;25.86;40.68;93375.19;4916240;29;9044;-55
2023/03/27 01:24:40;;;;;;;;;;;;;;;25.87;40.78;93382.16;4949132;28;7042;-56
2023/03/27 01:27:18;;;;;;;;;;;;;;;25.85;40.93;93382.72;4946751;28;6978;-55
2023/03/27 01:30:04;;;;;;;;;;;;;;;25.85;41.41;93384.72;4926260;29;9046;-55
2023/03/27 01:32:53;;;;;;;;;;;;;;;25.87;40.92;93384.91;4950146;28;7481;-55
2023/03/27 01:35:21;;;;;;;;;;;;;;;25.86;41.31;93391.72;4950531;28;8879;-55
2023/03/27 01:38:21;;;;;;;;;;;;;;;25.86;40.51;93392.44;4968234;28;7240;-56
2023/03/27 01:41:00;;;;;;;;;;;;;;;25.86;40.76;93397.94;5028447;28;9412;-55
2023/03/27 01:43:39;;;;;;;;;;;;;;;25.84;41.11;93395.00;5010664;28;9054;-55
2023/03/27 01:46:21;;;;;;;;;;;;;;;25.86;40.69;93395.19;5010850;28;7329;-56
2023/03/27 01:48:53;;;;;;;;;;;;;;;25.83;40.55;93388.03;5034722;28;8724;-55
2023/03/27 01:51:51;;;;;;;;;;;;;;;25.85;41.18;93396.47;5015344;28;7296;-55
2023/03/27 01:54:34;;;;;;;;;;;;;;;25.86;41.06;93400.69;5007095;28;7217;-56
2023/03/27 01:57:52;;;;;;;;;;;;;;;25.83;41.26;93399.03;5032683;28;7345;-55
2023/03/27 02:00:29;;;;;;;;;;;;;;;25.85;41.31;93410.25;4935372;28;7944;-55
2023/03/27 02:03:13;;;;;;;;;;;;;;;25.85;40.96;93402.00;4923546;29;9309;-56
2023/03/27 02:05:57;;;;;;;;;;;;;;;25.85;41.41;93407.50;4952517;28;8225;-56
2023/03/27 02:08:31;;;;;;;;;;;;;;;25.86;40.56;93411.72;4949406;28;10232;-56
2023/03/27 02:10:59;;;;;;;;;;;;;;;25.84;40.63;93417.03;4928008;28;7126;-56
2023/03/27 02:13:42;;;;;;;;;;;;;;;25.83;41.44;93415.56;4932276;28;8223;-55
2023/03/27 02:16:34;;;;;;;;;;;;;;;25.85;40.71;93420.53;4929591;29;7592;-56
2023/03/27 02:19:19;;;;;;;;;;;;;;;25.82;41.44;93425.09;4961963;28;7817;-55
2023/03/27 02:22:04;;;;;;;;;;;;;;;25.84;40.75;93430.06;4936539;28;9017;-55
2023/03/27 02:24:34;;;;;;;;;;;;;;;25.85;40.77;93437.06;4954505;28;7050;-56
2023/03/27 02:27:39;;;;;;;;;;;;;;;25.84;40.62;93441.81;4936174;28;9531;-56
2023/03/27 02:30:23;;;;;;;;;;;;;;;25.85;40.64;93445.31;4950070;28;7146;-56
2023/03/27 02:33:26;;;;;;;;;;;;;;;25.85;41.19;93446.06;4920560;28;9482;-55
2023/03/27 02:36:22;;;;;;;;;;;;;;;25.83;41.16;93451.38;4938723;28;9400;-55
2023/03/27 02:38:57;;;;;;;;;;;;;;;25.83;40.93;93456.13;4995907;28;8754;-55
2023/03/27 02:41:51;;;;;;;;;;;;;;;25.83;41.68;93465.16;5011842;28;9085;-55
2023/03/27 02:44:50;;;;;;;;;;;;;;;25.83;40.61;93467.91;4990155;28;7342;-55
2023/03/27 02:47:59;;;;;;;;;;;;;;;25.81;41.62;93466.94;5010801;28;7110;-55
2023/03/27 02:50:37;;;;;;;;;;;;;;;25.81;41.11;93473.22;4948265;28;8945;-55
2023/03/27 02:53:08;;;;;;;;;;;;;;;25.81;41.45;93470.47;4948464;28;9028;-56
2023/03/27 02:55:44;;;;;;;;;;;;;;;25.82;41.48;93471.19;4951231;28;7093;-56
2023/03/27 02:58:21;;;;;;;;;;;;;;;25.80;41.35;93474.47;4947519;28;7308;-56
2023/03/27 03:00:50;;;;;;;;;;;;;;;25.80;41.51;93477.22;4935677;28;7837;-56
2023/03/27 03:03:38;;;;;;;;;;;;;;;25.81;40.65;93477.97;4944827;28;7259;-56
2023/03/27 03:06:09;;;;;;;;;;;;;;;25.83;40.87;93486.44;4945869;28;7440;-55
2023/03/27 03:08:37;;;;;;;;;;;;;;;25.82;41.21;93485.69;4960725;28;7058;-55
2023/03/27 03:11:07;;;;;;;;;;;;;;;25.84;41.41;93487.91;4962587;28;9761;-55
2023/03/27 03:13:33;;;;;;;;;;;;;;;25.83;40.55;93498.22;4956434;28;8343;-55
2023/03/27 03:15:59;;;;;;;;;;;;;;;25.83;41.53;93491.94;4967646;28;8756;-56
2023/03/27 03:18:28;;;;;;;;;;;;;;;25.83;40.95;93505.72;4962394;28;7124;-55
2023/03/27 03:20:56;;;;;;;;;;;;;;;25.82;40.85;93504.22;4936938;28;8689;-55
2023/03/27 03:23:23;;;;;;;;;;;;;;;25.82;41.56;93513.25;4962695;28;7233;-56
2023/03/27 03:25:51;;;;;;;;;;;;;;;25.82;41.08;93518.00;5032784;28;7114;-55
2023/03/27 03:28:22;;;;;;;;;;;;;;;25.83;40.37;93527.75;5034685;28;9172;-55
2023/03/27 03:30:49;;;;;;;;;;;;;;;25.83;40.68;93530.50;5037433;28;9528;-56
2023/03/27 03:33:16;;;;;;;;;;;;;;;25.82;41.48;93535.28;5014879;28;7993;-55
2023/03/27 03:35:51;;;;;;;;;;;;;;;25.83;40.76;93542.28;5004955;28;7023;-55
2023/03/27 03:38:23;;;;;;;;;;;;;;;25.83;40.55;93547.78;5001933;28;6984;-56
2023/03/27 03:40:54;;;;;;;;;;;;;;;25.81;40.55;93550.34;5034730;28;7218;-56
2023/03/27 03:43:33;;;;;;;;;;;;;;;25.83;40.71;93555.31;5018149;28;7183;-56
2023/03/27 03:46:00;;;;;;;;;;;;;;;25.83;41.45;93564.31;5015331;28;9116;-56
2023/03/27 03:48:26;;;;;;;;;;;;;;;25.85;40.67;93561.03;5024273;28;8720;-56
2023/03/27 03:50:58;;;;;;;;;;;;;;;25.86;40.95;93581.81;5010295;28;7267;-55
2023/03/27 03:53:36;;;;;;;;;;;;;;;25.83;40.94;93574.59;5040892;28;7501;-56
2023/03/27 03:56:07;;;;;;;;;;;;;;;25.85;40.96;93572.78;5029277;28;9463;-55
2023/03/27 03:58:43;;;;;;;;;;;;;;;25.84;40.60;93571.28;5017432;28;9030;-56
2023/03/27 04:01:19;;;;;;;;;;;;;;;25.83;41.10;93580.84;5006979;28;7269;-55
2023/03/27 04:03:52;;;;;;;;;;;;;;;25.83;41.02;93583.59;5004732;28;7643;-55
2023/03/27 04:06:37;;;;;;;;;;;;;;;25.81;41.10;93583.41;5026180;28;7255;-56
2023/03/27 04:09:13;;;;;;;;;;;;;;;25.83;40.50;93589.09;4993358;28;7357;-56
2023/03/27 04:11:47;;;;;;;;;;;;;;;25.83;41.52;93602.88;5026034;28;9388;-55
2023/03/27 04:14:24;;;;;;;;;;;;;;;25.83;40.67;93596.63;5010987;28;9112;-55
2023/03/27 04:17:22;;;;;;;;;;;;;;;25.83;41.52;93605.63;5026127;28;7139;-55
2023/03/27 04:20:05;;;;;;;;;;;;;;;25.83;41.36;93624.94;4951020;28;7036;-55
2023/03/27 04:22:48;;;;;;;;;;;;;;;25.83;41.05;93621.41;4956251;28;8722;-55
2023/03/27 04:25:18;;;;;;;;;;;;;;;25.84;41.64;93625.66;4956933;28;9905;-55
2023/03/27 04:27:45;;;;;;;;;;;;;;;25.86;40.76;93628.63;4953506;28;9362;-55
2023/03/27 04:30:26;;;;;;;;;;;;;;;25.86;40.76;93628.63;4962811;28;8174;-55
2023/03/27 04:33:17;;;;;;;;;;;;;;;25.86;47.16;93628.63;4965255;28;9032;-55
2023/03/27 04:35:47;;;;;;;;;;;;;;;25.99;45.47;93637.63;4948155;28;7336;-55
2023/03/27 04:38:25;;;;;;;;;;;;;;;26.00;42.28;93639.09;4954081;28;7008;-56
2023/03/27 04:41:12;;;;;;;;;;;;;;;25.97;42.34;93640.16;4966555;28;9185;-55
2023/03/27 04:43:49;;;;;;;;;;;;;;;25.97;41.51;93650.44;4955393;28;7228;-55
2023/03/27 04:46:28;;;;;;;;;;;;;;;26.00;41.75;93663.16;4950292;28;7628;-56
2023/03/27 04:49:19;;;;;;;;;;;;;;;25.96;41.48;93657.22;4952222;28;8676;-56
2023/03/27 04:51:56;;;;;;;;;;;;;;;25.93;41.63;93663.78;4963847;28;9431;-55
2023/03/27 04:54:40;;;;;;;;;;;;;;;25.89;42.01;93669.63;4974914;28;8221;-57
2023/03/27 04:57:17;;;;;;;;;;;;;;;25.92;42.00;93676.09;4994442;28;7317;-56
2023/03/27 04:59:45;;;;;;;;;;;;;;;25.91;42.17;93675.34;5024538;28;7175;-56
2023/03/27 05:02:20;;;;;;;;;;;;;;;25.97;42.67;93678.00;5005434;28;7004;-56
2023/03/27 05:04:47;;;;;;;;;;;;;;;26.01;42.60;93681.91;4991835;28;9087;-55
2023/03/27 05:07:16;;;;;;;;;;;;;;;25.99;41.29;93698.22;5007537;28;7025;-55
2023/03/27 05:09:44;;;;;;;;;;;;;;;26.00;41.77;93685.19;5031250;28;7026;-56
2023/03/27 05:12:12;;;;;;;;;;;;;;;25.98;41.80;93696.75;5010332;28;9016;-56
2023/03/27 05:14:41;;;;;;;;;;;;;;;25.99;41.48;93700.28;5013423;28;9024;-56
2023/03/27 05:17:08;;;;;;;;;;;;;;;26.01;40.44;93712.22;5028224;28;6986;-55
2023/03/27 05:19:34;;;;;;;;;;;;;;;25.97;41.32;93724.84;5019581;28;7227;-55
2023/03/27 05:22:00;;;;;;;;;;;;;;;25.93;41.67;93730.66;5026141;28;8746;-56
2023/03/27 05:24:26;;;;;;;;;;;;;;;25.92;40.97;93722.94;5022259;28;9073;-56
2023/03/27 05:26:52;;;;;;;;;;;;;;;25.90;41.36;93728.97;5018573;28;9106;-55
2023/03/27 05:29:20;;;;;;;;;;;;;;;25.90;42.01;93739.97;5010172;28;8694;-56
2023/03/27 05:31:46;;;;;;;;;;;;;;;25.89;41.39;93746.03;5003702;28;9291;-56
2023/03/27 05:34:18;;;;;;;;;;;;;;;25.90;41.27;93750.28;5007106;28;7030;-56
2023/03/27 05:36:45;;;;;;;;;;;;;;;25.89;41.04;93746.03;5032434;28;9215;-56
2023/03/27 05:39:12;;;;;;;;;;;;;;;25.87;41.80;93746.56;5039360;28;8848;-56
2023/03/27 05:41:40;;;;;;;;;;;;;;;25.88;41.39;93761.81;5031891;28;9178;-55
2023/03/27 05:44:06;;;;;;;;;;;;;;;25.89;41.52;93762.56;5010330;28;7309;-55
2023/03/27 05:46:33;;;;;;;;;;;;;;;25.89;41.50;93774.31;5006305;28;7175;-55
2023/03/27 05:48:59;;;;;;;;;;;;;;;25.89;41.21;93770.81;5019438;28;7293;-55
2023/03/27 05:51:28;;;;;;;;;;;;;;;25.87;41.97;93779.63;5009296;28;7627;-55
2023/03/27 05:53:54;;;;;;;;;;;;;;;25.86;41.50;93791.91;5036806;28;9209;-55
2023/03/27 05:56:20;;;;;;;;;;;;;;;25.89;42.56;93784.59;5006632;28;8205;-55
2023/03/27 05:58:48;;;;;;;;;;;;;;;25.89;41.76;93796.38;5042771;28;8961;-56
2023/03/27 06:01:17;;;;;;;;;;;;;;;25.88;42.20;93803.13;5007031;28;9515;-55
2023/03/27 06:03:48;;;;;;;;;;;;;;;25.89;41.78;93809.41;5009901;28;9140;-56
2023/03/27 06:06:16;;;;;;;;;;;;;;;25.89;41.95;93825.94;5004902;28;6981;-56
2023/03/27 06:08:43;;;;;;;;;;;;;;;25.89;41.80;93834.19;4998475;28;8226;-56
2023/03/27 06:11:16;;;;;;;;;;;;;;;25.88;41.96;93830.69;5011413;28;7213;-56
2023/03/27 06:13:49;;;;;;;;;;;;;;;25.89;41.72;93836.94;5019971;28;7044;-56
2023/03/27 06:16:19;;;;;;;;;;;;;;;25.89;42.05;93842.47;4997407;28;7042;-56
2023/03/27 06:18:47;;;;;;;;;;;;;;;25.89;42.24;93851.47;5037868;28;7209;-56
2023/03/27 06:21:18;;;;;;;;;;;;;;;25.91;42.28;93859.19;5011767;28;7097;-56
2023/03/27 06:23:52;;;;;;;;;;;;;;;25.90;41.96;93857.72;5008997;28;9031;-56
2023/03/27 06:26:27;;;;;;;;;;;;;;;25.90;41.32;93857.72;5012610;28;9361;-56
2023/03/27 06:28:55;;;;;;;;;;;;;;;25.90;41.64;93875.00;5013080;28;7050;-56
2023/03/27 06:31:26;;;;;;;;;;;;;;;25.90;41.32;93877.03;5003142;28;8930;-56
2023/03/27 06:33:58;;;;;;;;;;;;;;;25.90;41.79;93877.75;4995014;28;9224;-56
2023/03/27 06:36:31;;;;;;;;;;;;;;;25.92;42.06;93891.75;4979522;28;7023;-56
2023/03/27 06:39:05;;;;;;;;;;;;;;;25.92;41.50;93904.78;4995693;28;7027;-56
2023/03/27 06:41:31;;;;;;;;;;;;;;;25.91;42.06;93900.53;5002172;28;9420;-55
2023/03/27 06:43:58;;;;;;;;;;;;;;;25.90;42.01;93916.31;5003996;28;9030;-56
2023/03/27 06:46:24;;;;;;;;;;;;;;;25.88;42.17;93912.63;5004920;28;7494;-55
2023/03/27 06:48:57;;;;;;;;;;;;;;;25.88;42.53;93927.13;5029419;28;9378;-56
2023/03/27 06:51:25;;;;;;;;;;;;;;;25.88;41.38;93935.38;5006871;28;8431;-56
2023/03/27 06:54:04;;;;;;;;;;;;;;;25.86;42.01;93937.91;5006718;28;7143;-56
2023/03/27 06:57:00;;;;;;;;;;;;;;;25.87;41.53;93933.91;4995680;28;7305;-56
2023/03/27 06:59:44;;;;;;;;;;;;;;;25.84;41.82;93940.47;4944258;28;7081;-56
2023/03/27 07:02:24;;;;;;;;;;;;;;;25.86;41.67;93954.44;4961078;28;7270;-56
2023/03/27 07:04:59;;;;;;;;;;;;;;;25.85;42.26;93957.75;4955494;28;8947;-56
2023/03/27 07:07:35;;;;;;;;;;;;;;;25.86;41.76;93970.25;4952983;28;9037;-56
2023/03/27 07:10:32;;;;;;;;;;;;;;;25.89;41.22;93969.94;4964083;28;9387;-56
2023/03/27 07:13:09;;;;;;;;;;;;;;;25.96;40.78;93974.09;4955829;28;9246;-55
2023/03/27 07:15:37;;;;;;;;;;;;;;;25.92;41.68;93990.97;4964015;28;9057;-56
2023/03/27 07:18:15;;;;;;;;;;;;;;;25.88;40.83;93993.25;4940827;28;9044;-56
2023/03/27 07:20:54;;;;;;;;;;;;;;;25.86;41.65;93997.81;4942841;28;8810;-56
2023/03/27 07:23:52;;;;;;;;;;;;;;;25.88;41.06;94000.78;4960685;28;9188;-56
2023/03/27 07:26:34;;;;;;;;;;;;;;;25.86;41.73;94011.59;4918622;29;8991;-56
2023/03/27 07:29:38;;;;;;;;;;;;;;;25.87;40.99;94018.56;4923573;29;7271;-56
2023/03/27 07:36:10;;;;;;;;;;;;;;;25.83;41.83;94035.41;4876459;29;7286;-56
2023/03/27 07:38:40;;;;;;;;;;;;;;;25.83;42.12;94035.41;4882394;29;7353;-56
2023/03/27 07:41:08;;;;;;;;;;;;;;;25.84;41.02;94039.63;4878402;29;7264;-56
2023/03/27 07:43:36;;;;;;;;;;;;;;;25.83;41.16;94045.69;4862884;29;8717;-55
2023/03/27 07:46:26;;;;;;;;;;;;;;;25.83;41.76;94049.19;4884203;29;7417;-56
2023/03/27 07:49:13;;;;;;;;;;;;;;;25.83;41.92;94059.44;4869476;29;7260;-56
2023/03/27 07:52:14;;;;;;;;;;;;;;;25.83;41.07;94062.22;4877577;29;7041;-56
2023/03/27 07:54:48;;;;;;;;;;;;;;;25.84;41.08;94066.44;4899149;29;7251;-56
2023/03/27 07:57:14;;;;;;;;;;;;;;;25.83;41.45;94076.72;4911788;29;7148;-56
2023/03/27 07:59:49;;;;;;;;;;;;;;;25.83;41.82;94079.50;4911309;29;7261;-56
2023/03/27 08:02:15;;;;;;;;;;;;;;;25.84;40.99;94075.47;4914000;29;9365;-55
2023/03/27 08:04:41;;;;;;;;;;;;;;;25.82;41.43;94080.75;4934341;28;7030;-56
2023/03/27 08:07:08;;;;;;;;;;;;;;;25.86;40.94;94094.25;4946626;28;9069;-56
2023/03/27 08:09:36;;;;;;;;;;;;;;;25.85;40.86;94098.25;4926035;28;9487;-56
2023/03/27 08:12:05;;;;;;;;;;;;;;;25.87;41.07;94103.97;4975045;28;7163;-56
2023/03/27 08:14:34;;;;;;;;;;;;;;;25.84;40.97;94105.00;5007413;28;7033;-55
2023/03/27 08:17:11;;;;;;;;;;;;;;;25.83;41.17;94112.56;5006598;28;8709;-56
2023/03/27 08:19:48;;;;;;;;;;;;;;;25.84;41.21;94122.28;4992767;28;7038;-56
2023/03/27 08:22:31;;;;;;;;;;;;;;;25.87;40.90;94120.50;5002526;28;7626;-56
2023/03/27 08:25:12;;;;;;;;;;;;;;;25.85;41.25;94123.03;4999965;28;7282;-55
2023/03/27 08:27:39;;;;;;;;;;;;;;;25.87;40.91;94131.53;5008240;28;7243;-56
2023/03/27 08:30:08;;;;;;;;;;;;;;;25.87;41.75;94143.31;5007894;28;9108;-56
2023/03/27 08:32:38;;;;;;;;;;;;;;;25.87;40.75;94145.31;5009333;28;9030;-56
2023/03/27 08:35:17;;;;;;;;;;;;;;;25.87;41.53;94150.81;5028553;28;9051;-55
2023/03/27 08:37:43;;;;;;;;;;;;;;;25.87;41.06;94154.34;5029938;28;7228;-55
2023/03/27 08:40:26;;;;;;;;;;;;;;;25.87;41.54;94154.34;5021042;28;9044;-56
2023/03/27 08:43:37;;;;;;;;;;;;;;;25.87;41.29;94168.09;5026293;28;9069;-55
2023/03/27 08:46:52;;;;;;;;;;;;;;;25.86;40.99;94174.88;5022867;28;7051;-56
2023/03/27 08:49:20;;;;;;;;;;;;;;;25.86;41.23;94174.88;4931124;29;6985;-55
2023/03/27 08:52:18;;;;;;;;;;;;;;;25.88;40.74;94177.84;4947069;29;9856;-55
2023/03/27 08:55:17;;;;;;;;;;;;;;;25.87;41.45;94168.09;4920563;29;7246;-55
2023/03/27 08:57:43;;;;;;;;;;;;;;;25.87;41.27;94170.88;4931747;29;7136;-56
2023/03/27 09:00:28;;;;;;;;;;;;;;;25.88;41.24;94177.84;4909373;29;7261;-56
2023/03/27 09:03:25;;;;;;;;;;;;;;;25.88;41.70;94182.63;4930415;29;9339;-55
2023/03/27 09:06:01;;;;;;;;;;;;;;;25.87;40.95;94190.16;4913780;29;7426;-55
2023/03/27 09:09:17;;;;;;;;;;;;;;;25.87;41.61;94192.91;4924145;29;9146;-56
2023/03/27 09:11:58;;;;;;;;;;;;;;;25.87;41.18;94200.41;4875599;29;7866;-56
2023/03/27 09:15:01;;;;;;;;;;;;;;;25.89;41.62;94200.66;4854296;29;9146;-55
2023/03/27 09:18:11;;;;;;;;;;;;;;;25.87;41.56;94194.91;4872498;29;7980;-56
2023/03/27 09:21:02;;;;;;;;;;;;;;;25.85;41.36;94195.44;4861774;29;9866;-55
2023/03/27 09:23:36;;;;;;;;;;;;;;;25.84;41.40;94199.44;4876714;29;7029;-56
2023/03/27 09:26:34;;;;;;;;;;;;;;;25.84;40.96;94204.19;4880404;29;8449;-55
2023/03/27 09:29:15;;;;;;;;;;;;;;;25.83;41.27;94205.47;4893421;29;9071;-56
2023/03/27 09:32:29;;;;;;;;;;;;;;;25.82;41.85;94220.50;4908109;29;8986;-55
2023/03/27 09:35:12;;;;;;;;;;;;;;;25.84;41.40;94212.47;4909885;29;8580;-56
2023/03/27 09:37:38;;;;;;;;;;;;;;;25.83;41.02;94220.00;4902334;29;7139;-55
2023/03/27 09:40:16;;;;;;;;;;;;;;;25.83;41.03;94228.28;4906356;29;7486;-55
2023/03/27 09:43:07;;;;;;;;;;;;;;;25.82;41.59;94224.00;4901115;29;7134;-55
2023/03/27 09:46:16;;;;;;;;;;;;;;;25.83;41.67;94228.28;4917069;29;9089;-56
2023/03/27 09:48:56;;;;;;;;;;;;;;;25.82;41.02;94235.03;4985225;28;7291;-55
2023/03/27 09:51:42;;;;;;;;;;;;;;;25.83;41.29;94230.28;4980043;28;7212;-56
2023/03/27 09:54:55;;;;;;;;;;;;;;;25.84;41.64;94238.00;4945771;28;7137;-56
2023/03/27 09:57:51;;;;;;;;;;;;;;;25.85;41.59;94241.53;4917497;29;9325;-56
2023/03/27 10:00:36;;;;;;;;;;;;;;;25.87;41.14;94250.00;4848465;29;9160;-56
2023/03/27 10:03:24;;;;;;;;;;;;;;;25.84;41.49;94251.78;4853721;29;9686;-56
2023/03/27 10:09:34;;;;;;;;;;;;;;;25.87;41.01;94256.28;4845749;29;6797;-56
2023/03/27 10:12:31;;;;;;;;;;;;;;;25.86;40.72;94260.28;4854407;29;9248;-56
2023/03/27 10:15:51;;;;;;;;;;;;;;;25.85;40.46;94264.31;4876526;29;9127;-56
2023/03/27 10:18:29;;;;;;;;;;;;;;;25.84;40.79;94279.34;4871111;29;9341;-56
2023/03/27 10:21:38;;;;;;;;;;;;;;;25.83;40.93;94286.13;4865996;29;8242;-56
2023/03/27 10:24:32;;;;;;;;;;;;;;;25.82;41.13;94290.13;4834195;29;7048;-55
2023/03/27 10:27:08;;;;;;;;;;;;;;;25.82;40.81;94301.16;4821150;29;6864;-56
2023/03/27 10:29:43;;;;;;;;;;;;;;;25.80;40.80;94297.41;4828018;29;7289;-55
2023/03/27 10:32:09;;;;;;;;;;;;;;;25.83;41.23;94301.91;4844417;29;9456;-56
2023/03/27 10:35:02;;;;;;;;;;;;;;;25.80;40.71;94303.69;4839450;29;8720;-56
2023/03/27 10:37:30;;;;;;;;;;;;;;;25.83;41.02;94310.94;4862848;29;7465;-55
2023/03/27 10:40:08;;;;;;;;;;;;;;;25.80;41.34;94309.19;4875714;29;7092;-55
2023/03/27 10:42:40;;;;;;;;;;;;;;;25.85;40.98;94321.44;4864158;29;7258;-55
2023/03/27 10:45:15;;;;;;;;;;;;;;;25.86;40.82;94317.41;4878630;29;7081;-56
2023/03/27 10:47:51;;;;;;;;;;;;;;;25.88;40.58;94318.38;4871378;29;8711;-56
2023/03/27 10:50:43;;;;;;;;;;;;;;;25.88;40.58;94321.13;4898506;28;7089;-56
2023/03/27 10:53:18;;;;;;;;;;;;;;;25.89;40.92;94327.41;4941918;28;8262;-55
2023/03/27 10:55:58;;;;;;;;;;;;;;;25.87;40.73;94330.69;4938648;28;7028;-56
2023/03/27 10:58:48;;;;;;;;;;;;;;;25.87;40.65;94333.44;4951792;28;7205;-55
2023/03/27 11:01:47;;;;;;;;;;;;;;;25.88;41.42;94337.66;5003364;28;9257;-55
2023/03/27 11:05:00;;;;;;;;;;;;;;;25.89;41.22;94344.69;5033270;28;9912;-55
2023/03/27 11:07:45;;;;;;;;;;;;;;;25.85;40.75;94338.72;4990443;28;7016;-56
2023/03/27 11:10:29;;;;;;;;;;;;;;;25.89;41.32;94338.41;5033988;28;7042;-56
2023/03/27 11:13:26;;;;;;;;;;;;;;;25.89;40.78;94341.94;5026989;28;7284;-56
2023/03/27 11:15:57;;;;;;;;;;;;;;;25.90;41.32;94350.94;4935146;28;7055;-56
2023/03/27 11:18:44;;;;;;;;;;;;;;;25.91;40.51;94352.44;4954387;28;7615;-55
2023/03/27 11:21:18;;;;;;;;;;;;;;;25.89;41.08;94352.94;4936114;28;9531;-55
2023/03/27 11:23:47;;;;;;;;;;;;;;;25.89;40.56;94358.47;4950996;28;7465;-56
2023/03/27 11:26:15;;;;;;;;;;;;;;;25.88;40.45;94356.22;4936095;28;8353;-55
2023/03/27 11:29:08;;;;;;;;;;;;;;;25.88;40.46;94359.72;4934660;29;8679;-55
2023/03/27 11:32:12;;;;;;;;;;;;;;;25.88;41.13;94364.50;4936723;28;7123;-56
2023/03/27 11:34:51;;;;;;;;;;;;;;;25.88;40.58;94365.22;4936386;28;8777;-56
2023/03/27 11:37:37;;;;;;;;;;;;;;;25.88;40.41;94373.50;4935550;28;7030;-56
2023/03/27 11:40:12;;;;;;;;;;;;;;;25.87;40.51;94374.75;4934381;28;9110;-56
2023/03/27 11:42:49;;;;;;;;;;;;;;;25.86;40.47;94376.00;4942047;28;7490;-55
2023/03/27 11:45:22;;;;;;;;;;;;;;;25.86;40.58;94378.78;4947567;28;9408;-56
2023/03/27 11:48:22;;;;;;;;;;;;;;;25.87;40.39;94377.53;4946778;28;7321;-55
2023/03/27 11:51:07;;;;;;;;;;;;;;;25.86;40.60;94380.78;4940245;28;9466;-56
2023/03/27 11:53:59;;;;;;;;;;;;;;;25.89;41.01;94382.50;4982685;28;7244;-56
2023/03/27 11:56:42;;;;;;;;;;;;;;;25.89;41.23;94375.00;5040666;28;7041;-55
2023/03/27 11:59:34;;;;;;;;;;;;;;;25.92;40.67;94390.50;5017085;28;7277;-56
2023/03/27 12:02:38;;;;;;;;;;;;;;;25.93;40.82;94397.50;5017289;28;7093;-55
2023/03/27 12:05:40;;;;;;;;;;;;;;;25.94;40.47;94396.25;4996071;28;7368;-55
2023/03/27 12:08:16;;;;;;;;;;;;;;;25.99;41.59;94397.47;4993886;28;8994;-55
2023/03/27 12:10:59;;;;;;;;;;;;;;;26.06;41.18;94396.91;5013359;28;7279;-55
2023/03/27 12:14:04;;;;;;;;;;;;;;;26.06;40.75;94396.91;5010826;28;8984;-56
2023/03/27 12:17:05;;;;;;;;;;;;;;;26.10;40.40;94403.66;5003634;28;9016;-56
2023/03/27 12:19:47;;;;;;;;;;;;;;;26.05;40.39;94407.19;5011084;28;9356;-55
2023/03/27 12:22:42;;;;;;;;;;;;;;;26.06;40.51;94411.44;5007777;28;7301;-56
2023/03/27 12:25:24;;;;;;;;;;;;;;;26.06;41.12;94414.19;5029628;28;9018;-55
2023/03/27 12:28:07;;;;;;;;;;;;;;;26.05;40.98;94417.47;5042209;28;9097;-55
2023/03/27 12:31:05;;;;;;;;;;;;;;;26.05;41.03;94423.75;5018321;28;8925;-55
2023/03/27 12:33:48;;;;;;;;;;;;;;;26.05;41.26;94420.22;5005499;28;8876;-56
2023/03/27 12:36:23;;;;;;;;;;;;;;;26.07;41.12;94423.97;5010897;28;7927;-56
2023/03/27 12:38:51;;;;;;;;;;;;;;;26.07;41.43;94429.47;5002550;28;9234;-56
2023/03/27 12:41:24;;;;;;;;;;;;;;;26.06;40.98;94425.22;4993548;28;9409;-55
2023/03/27 12:44:03;;;;;;;;;;;;;;;26.06;41.05;94424.47;5010786;28;9075;-56
2023/03/27 12:46:32;;;;;;;;;;;;;;;26.06;41.60;94424.47;5009048;28;7414;-55
2023/03/27 12:49:10;;;;;;;;;;;;;;;26.06;41.49;94432.72;5017285;28;9522;-56
2023/03/27 12:52:04;;;;;;;;;;;;;;;26.08;40.56;94430.22;5000547;28;9398;-56
2023/03/27 12:55:16;;;;;;;;;;;;;;;26.05;41.30;94431.25;4999206;28;7330;-56
2023/03/27 12:58:12;;;;;;;;;;;;;;;26.00;41.30;94438.31;5020614;28;9178;-55
2023/03/27 13:00:53;;;;;;;;;;;;;;;26.01;41.48;94428.03;4959166;28;7874;-56
2023/03/27 13:03:30;;;;;;;;;;;;;;;26.06;40.89;94435.50;4956099;28;9408;-56
2023/03/27 13:06:21;;;;;;;;;;;;;;;26.06;40.71;94441.75;4921461;29;9094;-56
2023/03/27 13:09:16;;;;;;;;;;;;;;;26.05;41.22;94443.03;4915277;29;8951;-56
2023/03/27 13:11:44;;;;;;;;;;;;;;;26.07;41.30;94448.03;4966942;28;8870;-56
2023/03/27 13:14:31;;;;;;;;;;;;;;;26.08;41.08;94444.00;4943524;28;7516;-55
2023/03/27 13:17:32;;;;;;;;;;;;;;;26.09;40.76;94445.53;4930069;28;8712;-55
2023/03/27 13:20:36;;;;;;;;;;;;;;;26.10;40.94;94447.75;4930343;29;7230;-55
2023/03/27 13:23:43;;;;;;;;;;;;;;;26.12;41.21;94450.03;4936721;28;7714;-55
2023/03/27 13:26:53;;;;;;;;;;;;;;;26.12;40.51;94450.03;4922756;29;6860;-55
2023/03/27 13:29:31;;;;;;;;;;;;;;;26.11;40.74;94451.28;4951585;28;9610;-55
2023/03/27 13:32:38;;;;;;;;;;;;;;;26.12;40.46;94450.03;4938819;28;7563;-56
2023/03/27 13:35:23;;;;;;;;;;;;;;;26.11;41.40;94448.53;4941832;28;7103;-55
2023/03/27 13:37:52;;;;;;;;;;;;;;;26.13;40.65;94457.03;4977651;28;9280;-55
2023/03/27 13:40:43;;;;;;;;;;;;;;;26.11;40.66;94457.53;5011984;28;7093;-55
2023/03/27 13:43:32;;;;;;;;;;;;;;;26.12;40.67;94461.06;4997004;28;7000;-55
2023/03/27 13:46:17;;;;;;;;;;;;;;;26.16;41.13;94456.00;5011924;28;8669;-56
2023/03/27 13:55:48;;;;;;;;;;;;;;;26.19;40.24;94460.47;4997525;28;7055;-55
2023/03/27 13:59:03;;;;;;;;;;;;;;;26.18;40.80;94475.53;5035824;28;9427;-55
2023/03/27 14:05:16;;;;;;;;;;;;;;;26.21;40.11;94490.31;5004000;28;8796;-56
2023/03/27 14:08:04;;;;;;;;;;;;;;;26.22;40.86;94486.28;5023814;28;9467;-55
2023/03/27 14:10:59;;;;;;;;;;;;;;;26.23;40.80;94494.03;5015787;28;7496;-56
2023/03/27 14:14:05;;;;;;;;;;;;;;;26.28;40.66;94493.25;5036834;28;7641;-55
2023/03/27 14:17:01;;;;;;;;;;;;;;;26.30;40.17;94493.47;5008490;28;8773;-55
2023/03/27 14:19:49;;;;;;;;;;;;;;;26.28;39.96;94506.28;5011385;28;7288;-55
2023/03/27 14:22:25;;;;;;;;;;;;;;;26.21;40.37;94506.84;5012679;28;7147;-55
2023/03/27 14:25:43;;;;;;;;;;;;;;;26.18;40.67;94503.09;5031591;28;8261;-56
2023/03/27 14:28:30;;;;;;;;;;;;;;;26.15;40.37;94502.13;5005241;28;8617;-55